Time;durP1;ratioP1;P1;durP2;ratioP2;P2;SDS_P1;SDS_P2;PMS_P1;PMS_P2;Temp;Humidity;BMP_temperature;BMP_pressure;BME280_temperature;BME280_humidity;BME280_pressure;Samples;Min_cycle;Max_cycle;Signal;HPM_P1;HPM_P2
2021/06/06 00:02:09;;;;;;;2.75;2.10;;;;;;;22.63;61.98;100757.26;1727668;82;21158;-62
2021/06/06 00:04:43;;;;;;;3.08;2.20;;;;;;;22.63;62.04;100753.09;1717064;81;21042;-63
2021/06/06 00:07:03;;;;;;;2.55;1.67;;;;;;;22.62;62.09;100756.44;1718049;82;21588;-63
2021/06/06 00:09:30;;;;;;;2.22;1.60;;;;;;;22.63;62.11;100753.09;1736531;80;21085;-63
2021/06/06 00:11:56;;;;;;;2.50;1.90;;;;;;;22.62;62.12;100748.13;1718705;82;21097;-62
2021/06/06 00:14:29;;;;;;;2.60;1.87;;;;;;;22.62;62.13;100746.73;1724347;81;21675;-63
2021/06/06 00:16:58;;;;;;;2.67;1.72;;;;;;;22.59;62.15;100740.48;1749911;80;21675;-63
2021/06/06 00:19:25;;;;;;;2.37;1.70;;;;;;;22.59;62.21;100750.18;1745896;81;21083;-63
2021/06/06 00:21:51;;;;;;;2.33;1.87;;;;;;;22.60;62.19;100746.84;1740202;80;23188;-63
2021/06/06 00:24:21;;;;;;;2.27;1.90;;;;;;;22.57;62.22;100738.63;1715050;82;21136;-63
2021/06/06 00:26:47;;;;;;;1.80;1.50;;;;;;;22.59;62.26;100743.82;1749320;81;21478;-63
2021/06/06 00:29:13;;;;;;;2.30;1.50;;;;;;;22.61;62.34;100742.92;1721600;82;21126;-63
2021/06/06 00:31:40;;;;;;;2.45;1.50;;;;;;;22.62;62.47;100743.14;1741902;81;21063;-64
2021/06/06 00:34:06;;;;;;;2.02;1.57;;;;;;;22.63;62.59;100736.46;1740790;81;21107;-64
2021/06/06 00:36:32;;;;;;;2.55;1.60;;;;;;;22.64;62.71;100740.30;1736593;81;21391;-63
2021/06/06 00:38:59;;;;;;;2.00;1.27;;;;;;;22.65;62.79;100728.64;1755382;81;21458;-63
2021/06/06 00:41:26;;;;;;;2.27;1.72;;;;;;;22.68;62.81;100730.73;1750461;80;21008;-63
2021/06/06 00:43:53;;;;;;;2.10;1.50;;;;;;;22.73;62.79;100727.81;1732342;81;21784;-63
2021/06/06 00:46:20;;;;;;;2.22;1.77;;;;;;;22.73;62.71;100725.86;1716740;82;22324;-63
2021/06/06 00:48:47;;;;;;;2.00;1.60;;;;;;;22.74;62.67;100728.84;1720858;82;21047;-63
2021/06/06 00:51:23;;;;;;;2.12;1.50;;;;;;;22.73;62.64;100724.47;1743390;81;21111;-63
2021/06/06 00:53:57;;;;;;;2.40;1.60;;;;;;;22.73;62.60;100726.42;1712930;81;21134;-63
2021/06/06 00:56:25;;;;;;;2.17;1.77;;;;;;;22.67;62.54;100714.66;1754457;81;21142;-63
2021/06/06 00:58:51;;;;;;;2.50;1.57;;;;;;;22.64;62.58;100719.50;1729541;80;21274;-63
2021/06/06 01:01:18;;;;;;;1.92;1.35;;;;;;;22.63;62.64;100719.25;1711739;82;21526;-63
2021/06/06 01:03:46;;;;;;;1.77;1.40;;;;;;;22.64;62.78;100711.75;1739185;81;21078;-63
2021/06/06 01:06:30;;;;;;;2.08;1.42;;;;;;;22.63;62.90;100715.66;1740003;81;20971;-63
2021/06/06 01:08:58;;;;;;;2.15;1.52;;;;;;;22.63;63.07;100723.41;1725856;80;21062;-63
2021/06/06 01:11:41;;;;;;;1.42;1.30;;;;;;;22.64;63.17;100724.23;1728299;80;21241;-63
2021/06/06 01:14:23;;;;;;;2.17;1.55;;;;;;;22.62;63.24;100714.84;1747684;81;21063;-63
2021/06/06 01:16:57;;;;;;;2.08;1.55;;;;;;;22.61;63.29;100714.63;1745584;80;21501;-63
2021/06/06 01:19:47;;;;;;;1.57;1.15;;;;;;;22.59;63.29;100709.16;1758334;80;21083;-63
2021/06/06 01:23:02;;;;;;;2.12;1.30;;;;;;;22.59;63.32;100713.31;1727767;81;21016;-63
2021/06/06 01:25:42;;;;;;;1.65;1.25;;;;;;;22.57;63.34;100711.47;1715692;82;22190;-63
2021/06/06 01:28:21;;;;;;;1.98;1.50;;;;;;;22.55;63.40;100706.81;1715383;82;21477;-63
2021/06/06 01:30:50;;;;;;;1.90;1.50;;;;;;;22.52;63.41;100707.48;1745755;80;21035;-63
2021/06/06 01:33:29;;;;;;;1.52;1.10;;;;;;;22.51;63.45;100705.28;1708553;82;21594;-63
2021/06/06 01:35:59;;;;;;;2.12;1.30;;;;;;;22.54;63.57;100706.00;1709383;82;21519;-64
2021/06/06 01:38:33;;;;;;;2.37;1.30;;;;;;;22.54;63.67;100713.50;1728823;81;22069;-63
2021/06/06 01:41:01;;;;;;;1.67;1.17;;;;;;;22.55;63.79;100715.13;1720107;82;21560;-64
2021/06/06 01:43:32;;;;;;;1.40;1.10;;;;;;;22.55;63.91;100720.11;1728130;81;21047;-65
2021/06/06 01:46:07;;;;;;;2.40;1.22;;;;;;;22.56;63.96;100727.86;1716795;82;21000;-65
2021/06/06 01:48:34;;;;;;;1.50;1.15;;;;;;;22.56;63.96;100732.02;1734535;81;20986;-65
2021/06/06 01:51:08;;;;;;;1.67;1.22;;;;;;;22.55;63.98;100733.97;1733087;81;21201;-65
2021/06/06 01:53:35;;;;;;;1.98;1.32;;;;;;;22.55;63.96;100735.36;1725883;82;21147;-65
2021/06/06 01:56:05;;;;;;;1.77;1.30;;;;;;;22.55;63.98;100722.06;1717308;82;21118;-65
2021/06/06 01:58:31;;;;;;;1.42;1.17;;;;;;;22.53;63.99;100716.84;1737691;81;21093;-64
2021/06/06 02:01:03;;;;;;;1.52;1.22;;;;;;;22.52;64.00;100710.27;1745380;80;21098;-64
2021/06/06 02:03:29;;;;;;;2.90;1.30;;;;;;;22.50;64.01;100711.97;1743521;80;21070;-64
2021/06/06 02:05:56;;;;;;;2.00;1.10;;;;;;;22.52;64.01;100711.08;1748559;80;21510;-64
2021/06/06 02:08:22;;;;;;;1.70;1.30;;;;;;;22.53;64.06;100709.13;1746328;80;21102;-64
2021/06/06 02:11:02;;;;;;;1.25;1.00;;;;;;;22.54;64.19;100713.50;1748177;80;21083;-63
2021/06/06 02:13:46;;;;;;;1.75;1.10;;;;;;;22.56;64.27;100718.97;1741454;81;21054;-64
2021/06/06 02:16:15;;;;;;;1.60;1.20;;;;;;;22.54;64.37;100712.93;1722200;82;21168;-64
2021/06/06 02:18:42;;;;;;;1.70;1.30;;;;;;;22.55;64.41;100711.79;1747066;81;21032;-64
2021/06/06 02:21:08;;;;;;;1.30;1.10;;;;;;;22.53;64.40;100705.75;1744113;81;21266;-65
2021/06/06 02:23:38;;;;;;;1.40;0.90;;;;;;;22.53;64.40;100702.19;1742018;81;21051;-65
2021/06/06 02:26:30;;;;;;;1.45;1.00;;;;;;;22.52;64.38;100702.76;1739667;81;21091;-65
2021/06/06 02:29:20;;;;;;;2.15;1.55;;;;;;;22.52;64.38;100690.85;1736261;80;23242;-65
2021/06/06 02:32:03;;;;;;;1.70;1.00;;;;;;;22.49;64.39;100686.77;1749147;80;21051;-64
2021/06/06 02:34:55;;;;;;;2.87;1.20;;;;;;;22.48;64.38;100685.73;1753218;80;21053;-64
2021/06/06 02:37:44;;;;;;;1.57;0.95;;;;;;;22.49;64.35;100685.98;1728479;82;21012;-63
2021/06/06 02:40:31;;;;;;;1.85;1.10;;;;;;;22.49;64.45;100677.66;1722691;82;21007;-64
2021/06/06 02:43:18;;;;;;;1.40;0.95;;;;;;;22.50;64.54;100686.20;1745104;81;21055;-64
2021/06/06 02:45:44;;;;;;;1.50;1.05;;;;;;;22.49;64.63;100681.22;1752721;80;21058;-65
2021/06/06 02:48:17;;;;;;;2.52;1.02;;;;;;;22.48;64.68;100676.84;1748706;80;21077;-64
2021/06/06 02:50:44;;;;;;;1.30;0.93;;;;;;;22.48;64.68;100680.19;1750858;80;21075;-64
2021/06/06 02:53:36;;;;;;;1.82;1.32;;;;;;;22.48;64.68;100687.13;1747359;81;21660;-64
2021/06/06 02:56:15;;;;;;;1.47;1.00;;;;;;;22.45;64.67;100684.42;1751322;80;21528;-64
2021/06/06 02:58:45;;;;;;;1.25;0.98;;;;;;;22.45;64.67;100688.58;1718271;81;22647;-64
2021/06/06 03:01:19;;;;;;;1.85;1.25;;;;;;;22.43;64.67;100690.89;1734803;81;21513;-63
2021/06/06 03:03:45;;;;;;;2.17;1.10;;;;;;;22.42;64.67;100688.44;1717161;82;21760;-64
2021/06/06 03:06:25;;;;;;;1.32;1.00;;;;;;;22.43;64.66;100688.12;1735885;81;21060;-63
2021/06/06 03:08:51;;;;;;;1.67;1.15;;;;;;;22.45;64.72;100682.25;1726992;82;21179;-64
2021/06/06 03:11:17;;;;;;;1.12;0.98;;;;;;;22.45;64.83;100680.27;1721445;82;21015;-64
2021/06/06 03:13:46;;;;;;;1.15;0.90;;;;;;;22.47;64.88;100684.10;1737374;81;21055;-64
2021/06/06 03:16:13;;;;;;;1.35;1.00;;;;;;;22.47;64.95;100676.60;1750636;81;21008;-64
2021/06/06 03:18:40;;;;;;;1.50;1.20;;;;;;;22.47;65.00;100685.48;1734545;81;21146;-62
2021/06/06 03:21:33;;;;;;;1.77;1.07;;;;;;;22.47;64.97;100689.65;1723761;82;21117;-63
2021/06/06 03:24:14;;;;;;;1.60;1.10;;;;;;;22.47;64.97;100681.33;1742061;81;21518;-64
2021/06/06 03:26:41;;;;;;;1.15;0.95;;;;;;;22.46;64.94;100671.37;1744605;81;21483;-64
2021/06/06 03:29:09;;;;;;;1.67;1.30;;;;;;;22.45;64.91;100677.49;1724530;80;21118;-65
2021/06/06 03:31:43;;;;;;;1.30;0.75;;;;;;;22.44;64.90;100670.92;1727958;81;21012;-63
2021/06/06 03:34:09;;;;;;;1.15;0.80;;;;;;;22.42;64.89;100674.58;1719024;82;21095;-64
2021/06/06 03:36:39;;;;;;;1.22;0.90;;;;;;;22.42;64.89;100669.85;1734334;81;21537;-63
2021/06/06 03:39:08;;;;;;;1.80;1.12;;;;;;;22.45;64.94;100676.11;1722811;82;21088;-63
2021/06/06 03:41:34;;;;;;;1.60;1.07;;;;;;;22.45;65.03;100669.17;1755386;81;21032;-63
2021/06/06 03:44:01;;;;;;;1.27;0.90;;;;;;;22.46;65.10;100674.97;1720434;81;20908;-63
2021/06/06 03:46:28;;;;;;;1.40;1.00;;;;;;;22.48;65.17;100680.19;1724063;82;21187;-63
2021/06/06 03:48:54;;;;;;;1.30;1.10;;;;;;;22.47;65.19;100687.69;1736474;81;20933;-63
2021/06/06 03:51:21;;;;;;;1.75;0.95;;;;;;;22.47;65.18;100682.14;1734476;81;21031;-63
2021/06/06 03:53:47;;;;;;;2.05;1.22;;;;;;;22.45;65.15;100676.11;1734962;81;21411;-62
2021/06/06 03:56:13;;;;;;;1.52;0.95;;;;;;;22.45;65.15;100677.49;1720208;82;21101;-62
2021/06/06 03:58:40;;;;;;;1.52;1.20;;;;;;;22.44;65.12;100674.50;1755111;81;21116;-62
2021/06/06 04:01:06;;;;;;;1.67;1.10;;;;;;;22.44;65.11;100660.64;1753410;81;21450;-63
2021/06/06 04:03:33;;;;;;;1.92;1.15;;;;;;;22.42;65.10;100660.15;1734345;81;21172;-64
2021/06/06 04:05:59;;;;;;;1.25;1.05;;;;;;;22.40;65.09;100661.07;1753462;81;21009;-64
2021/06/06 04:08:25;;;;;;;1.52;1.02;;;;;;;22.41;65.08;100651.59;1739162;81;20896;-63
2021/06/06 04:10:52;;;;;;;1.20;0.90;;;;;;;22.44;65.14;100650.13;1740055;81;21180;-63
2021/06/06 04:13:18;;;;;;;1.22;0.80;;;;;;;22.45;65.19;100649.77;1754732;81;21000;-63
2021/06/06 04:15:44;;;;;;;1.75;1.20;;;;;;;22.46;65.26;100654.17;1727137;81;21107;-65
2021/06/06 04:18:17;;;;;;;1.50;0.80;;;;;;;22.47;65.33;100659.16;1727226;81;21568;-64
2021/06/06 04:20:44;;;;;;;1.57;1.10;;;;;;;22.46;65.34;100656.95;1718851;82;21039;-64
2021/06/06 04:23:11;;;;;;;1.67;1.05;;;;;;;22.45;65.34;100663.63;1737364;81;21223;-63
2021/06/06 04:25:37;;;;;;;1.70;1.00;;;;;;;22.45;65.32;100665.02;1717955;82;21139;-63
2021/06/06 04:28:04;;;;;;;1.22;1.00;;;;;;;22.44;65.29;100664.80;1746996;81;21083;-63
2021/06/06 04:30:30;;;;;;;1.30;0.90;;;;;;;22.43;65.30;100670.09;1719893;81;21016;-64
2021/06/06 04:32:56;;;;;;;1.40;1.00;;;;;;;22.43;65.27;100665.13;1718757;82;21671;-63
2021/06/06 04:35:22;;;;;;;1.50;0.95;;;;;;;22.41;65.25;100666.83;1734965;80;22081;-63
2021/06/06 04:37:49;;;;;;;1.42;0.98;;;;;;;22.44;65.22;100669.53;1716140;82;21017;-62
2021/06/06 04:40:16;;;;;;;1.20;0.80;;;;;;;22.44;65.26;100675.89;1739209;81;21171;-62
2021/06/06 04:42:42;;;;;;;1.50;1.00;;;;;;;22.46;65.35;100686.06;1728710;81;21505;-63
2021/06/06 04:45:11;;;;;;;1.70;1.07;;;;;;;22.46;65.42;100676.36;1732411;81;21042;-62
2021/06/06 04:47:37;;;;;;;1.40;1.00;;;;;;;22.46;65.48;100681.90;1720859;82;21217;-63
2021/06/06 04:50:07;;;;;;;1.25;1.00;;;;;;;22.47;65.51;100683.53;1747233;80;20956;-62
2021/06/06 04:52:36;;;;;;;1.57;1.10;;;;;;;22.47;65.48;100685.48;1724702;82;21048;-62
2021/06/06 04:55:01;;;;;;;1.27;1.10;;;;;;;22.45;65.45;100687.20;1744250;80;21058;-63
2021/06/06 04:57:27;;;;;;;1.27;1.00;;;;;;;22.46;65.49;100688.02;1743997;81;21056;-64
2021/06/06 04:59:53;;;;;;;1.30;1.00;;;;;;;22.45;65.39;100689.97;1743518;81;21250;-63
2021/06/06 05:02:19;;;;;;;1.32;0.90;;;;;;;22.45;65.37;100690.57;1744921;80;21021;-63
2021/06/06 05:04:46;;;;;;;1.00;0.80;;;;;;;22.43;65.36;100688.12;1729212;81;20881;-63
2021/06/06 05:07:12;;;;;;;2.55;1.00;;;;;;;22.44;65.35;100694.48;1750501;81;21373;-64
2021/06/06 05:09:38;;;;;;;0.65;0.60;;;;;;;22.46;65.38;100697.72;1751554;81;20920;-63
2021/06/06 05:12:06;;;;;;;1.27;0.80;;;;;;;22.45;65.43;100698.28;1751551;81;21589;-64
2021/06/06 05:14:32;;;;;;;2.25;1.05;;;;;;;22.48;65.50;100702.38;1739705;81;21017;-63
2021/06/06 05:16:58;;;;;;;1.05;0.82;;;;;;;22.48;65.57;100701.80;1746771;80;21011;-63
2021/06/06 05:19:24;;;;;;;1.50;1.02;;;;;;;22.49;65.58;100702.02;1749164;80;21040;-63
2021/06/06 05:21:50;;;;;;;1.02;0.70;;;;;;;22.50;65.55;100705.61;1742760;80;21117;-63
2021/06/06 05:24:16;;;;;;;1.00;0.70;;;;;;;22.50;65.51;100718.90;1745549;80;22124;-63
2021/06/06 05:26:42;;;;;;;0.98;0.85;;;;;;;22.50;65.49;100724.44;1742517;80;21152;-64
2021/06/06 05:29:09;;;;;;;1.92;0.90;;;;;;;22.50;65.47;100735.53;1750519;81;20880;-63
2021/06/06 05:31:35;;;;;;;1.12;0.88;;;;;;;22.48;65.46;100732.86;1751499;80;21051;-64
2021/06/06 05:34:01;;;;;;;1.45;0.93;;;;;;;22.47;65.44;100740.36;1750103;80;21544;-64
2021/06/06 05:36:28;;;;;;;1.32;1.00;;;;;;;22.48;65.43;100747.55;1746991;80;23209;-63
2021/06/06 05:38:54;;;;;;;1.25;0.90;;;;;;;22.51;65.44;100747.44;1744985;80;21059;-63
2021/06/06 05:41:20;;;;;;;1.67;1.07;;;;;;;22.52;65.49;100747.12;1720505;82;20992;-62
2021/06/06 05:43:46;;;;;;;1.62;0.90;;;;;;;22.55;65.54;100754.77;1721250;82;21020;-64
2021/06/06 05:46:16;;;;;;;1.35;1.15;;;;;;;22.56;65.57;100752.24;1742921;80;21067;-62
2021/06/06 05:48:43;;;;;;;2.65;0.90;;;;;;;22.57;65.57;100755.27;1741450;80;21548;-63
2021/06/06 05:51:09;;;;;;;1.37;0.93;;;;;;;22.59;65.52;100753.52;1733464;82;21572;-63
2021/06/06 05:53:36;;;;;;;2.87;1.20;;;;;;;22.58;65.50;100760.20;1752741;80;21007;-63
2021/06/06 05:56:04;;;;;;;1.80;1.35;;;;;;;22.58;65.44;100766.57;1745453;80;20995;-63
2021/06/06 05:58:31;;;;;;;1.37;1.00;;;;;;;22.59;65.40;100759.89;1721651;82;21589;-64
2021/06/06 06:00:57;;;;;;;1.30;1.10;;;;;;;22.58;65.37;100763.80;1747171;81;21842;-63
2021/06/06 06:03:23;;;;;;;1.25;0.90;;;;;;;22.59;65.35;100764.05;1714798;82;21230;-64
2021/06/06 06:05:51;;;;;;;1.45;1.15;;;;;;;22.61;65.31;100760.95;1717618;82;21053;-63
2021/06/06 06:08:25;;;;;;;1.98;1.20;;;;;;;22.63;65.25;100765.01;1714145;82;21073;-63
2021/06/06 06:10:53;;;;;;;1.55;0.90;;;;;;;22.63;65.25;100759.46;1721910;82;21049;-63
2021/06/06 06:13:20;;;;;;;1.37;1.05;;;;;;;22.65;65.32;100760.53;1713449;82;21189;-63
2021/06/06 06:15:46;;;;;;;1.32;0.90;;;;;;;22.67;65.36;100759.61;1752280;80;21052;-63
2021/06/06 06:18:13;;;;;;;1.87;1.00;;;;;;;22.69;65.40;100758.17;1750372;80;20992;-63
2021/06/06 06:20:39;;;;;;;1.10;1.00;;;;;;;22.71;65.41;100757.25;1739972;80;21513;-62
2021/06/06 06:23:05;;;;;;;1.40;1.10;;;;;;;22.72;65.37;100763.05;1741664;81;21035;-63
2021/06/06 06:25:32;;;;;;;1.32;1.00;;;;;;;22.72;65.31;100761.66;1741775;81;21130;-63
2021/06/06 06:27:58;;;;;;;1.92;1.15;;;;;;;22.72;65.26;100760.84;1734075;80;21073;-63
2021/06/06 06:30:28;;;;;;;11.57;4.85;;;;;;;22.71;65.20;100764.76;1742523;80;21062;-63
2021/06/06 06:32:54;;;;;;;14.75;7.25;;;;;;;22.68;65.19;100759.28;1735804;80;21082;-63
2021/06/06 06:35:21;;;;;;;9.55;4.33;;;;;;;22.68;65.15;100761.23;1737166;80;21626;-64
2021/06/06 06:37:47;;;;;;;4.90;2.50;;;;;;;22.65;65.12;100763.30;1741264;81;21072;-64
2021/06/06 06:40:15;;;;;;;4.17;2.58;;;;;;;22.68;65.14;100764.02;1716081;82;21448;-63
2021/06/06 06:42:41;;;;;;;5.87;3.02;;;;;;;22.69;65.15;100765.68;1736859;80;21083;-63
2021/06/06 06:45:10;;;;;;;11.55;4.37;;;;;;;22.71;65.20;100761.41;1737254;80;21859;-63
2021/06/06 06:47:36;;;;;;;11.12;3.80;;;;;;;22.73;65.25;100756.94;1710460;82;21078;-63
2021/06/06 06:50:06;;;;;;;8.48;3.95;;;;;;;22.73;65.32;100752.77;1734098;80;40269;-63
2021/06/06 06:52:36;;;;;;;13.85;6.15;;;;;;;22.74;65.32;100753.02;1740442;80;21083;-63
2021/06/06 06:55:00;;;;;;;4.42;2.05;;;;;;;22.71;65.31;100753.09;1742762;80;21141;-63
2021/06/06 06:57:26;;;;;;;2.92;1.30;;;;;;;22.74;65.27;100759.35;1738828;80;20888;-63
2021/06/06 06:59:52;;;;;;;2.37;0.98;;;;;;;22.75;65.21;100761.56;1738600;81;21467;-63
2021/06/06 07:02:18;;;;;;;7.67;2.83;;;;;;;22.74;65.17;100753.80;1732199;80;21442;-63
2021/06/06 07:04:44;;;;;;;2.92;1.37;;;;;;;22.71;65.16;100751.70;1740759;80;21032;-63
2021/06/06 07:07:10;;;;;;;7.53;3.90;;;;;;;22.69;65.13;100746.27;1740670;80;21135;-64
2021/06/06 07:09:37;;;;;;;4.75;1.67;;;;;;;22.69;65.13;100742.11;1733018;80;21083;-64
2021/06/06 07:12:04;;;;;;;1.85;1.10;;;;;;;22.73;65.11;100744.45;1747250;80;21120;-63
2021/06/06 07:14:30;;;;;;;24.00;11.97;;;;;;;22.76;65.14;100741.00;1709600;82;21128;-63
2021/06/06 07:16:56;;;;;;;52.83;25.72;;;;;;;22.79;65.20;100749.25;1739596;80;21489;-63
2021/06/06 07:19:23;;;;;;;26.52;12.07;;;;;;;22.82;65.25;100751.34;1741070;80;21090;-63
2021/06/06 07:21:49;;;;;;;20.45;7.33;;;;;;;22.84;65.28;100755.97;1750670;80;21066;-63
2021/06/06 07:24:15;;;;;;;6.10;2.55;;;;;;;22.86;65.27;100752.30;1711588;82;21038;-62
2021/06/06 07:26:45;;;;;;;15.93;4.83;;;;;;;22.88;65.23;100748.61;1740737;80;21773;-63
2021/06/06 07:29:13;;;;;;;83.65;26.85;;;;;;;22.90;65.18;100752.69;1723312;82;21127;-63
2021/06/06 07:31:41;;;;;;;37.98;10.85;;;;;;;22.93;65.12;100746.47;1741360;80;21134;-64
2021/06/06 07:34:07;;;;;;;32.05;9.13;;;;;;;22.95;65.05;100754.46;1723840;82;21955;-63
2021/06/06 07:36:33;;;;;;;18.23;4.92;;;;;;;22.96;65.01;100745.78;1738250;80;20936;-62
2021/06/06 07:39:00;;;;;;;19.12;6.85;;;;;;;22.97;64.97;100746.03;1737631;81;21523;-61
2021/06/06 07:41:26;;;;;;;27.02;8.40;;;;;;;22.99;64.93;100745.70;1719315;82;21059;-63
2021/06/06 07:43:56;;;;;;;198.07;66.87;;;;;;;23.04;64.88;100748.30;1741387;80;21031;-63
2021/06/06 07:46:21;;;;;;;128.38;38.48;;;;;;;23.09;64.83;100745.30;1719401;82;21396;-63
2021/06/06 07:48:47;;;;;;;32.28;8.93;;;;;;;23.13;64.85;100745.69;1702875;82;21020;-61
2021/06/06 07:51:13;;;;;;;28.67;7.62;;;;;;;23.15;64.85;100747.56;1743875;81;21603;-62
2021/06/06 07:53:39;;;;;;;21.12;6.45;;;;;;;23.19;64.90;100747.12;1738649;80;21071;-61
2021/06/06 07:56:05;;;;;;;69.17;21.30;;;;;;;23.23;64.86;100754.20;1741179;80;20995;-63
2021/06/06 07:58:36;;;;;;;179.00;60.92;;;;;;;23.27;64.84;100752.37;1737357;80;20987;-63
2021/06/06 08:01:04;;;;;;;86.80;34.35;;;;;;;23.31;64.73;100758.06;1740770;81;21024;-64
2021/06/06 08:03:30;;;;;;;62.25;19.25;;;;;;;23.32;64.60;100763.29;1743392;80;21671;-63
2021/06/06 08:05:59;;;;;;;48.58;15.13;;;;;;;23.33;64.49;100761.33;1747154;81;21031;-63
2021/06/06 08:08:25;;;;;;;7.15;2.90;;;;;;;23.33;64.40;100772.44;1742888;81;21024;-61
2021/06/06 08:10:54;;;;;;;5.67;2.10;;;;;;;23.31;64.32;100773.33;1744757;80;21153;-62
2021/06/06 08:13:21;;;;;;;165.82;69.65;;;;;;;23.31;64.31;100770.55;1735654;81;21058;-62
2021/06/06 08:15:47;;;;;;;196.30;71.85;;;;;;;23.29;64.26;100776.46;1739334;81;21786;-63
2021/06/06 08:18:17;;;;;;;144.10;47.58;;;;;;;23.27;64.16;100777.36;1738154;80;21118;-63
2021/06/06 08:20:47;;;;;;;;;;;;;;;23.28;64.06;100779.56;1746443;80;21020;-62
2021/06/06 08:23:13;;;;;;;13.62;3.33;;;;;;;23.26;64.01;100785.44;1741249;80;20127;-62
2021/06/06 08:25:40;;;;;;;50.52;15.18;;;;;;;23.27;64.02;100784.30;1739520;80;21114;-62
2021/06/06 08:28:07;;;;;;;14.25;4.25;;;;;;;23.28;63.96;100782.34;1714290;82;21156;-62
2021/06/06 08:30:37;;;;;;;4.67;2.70;;;;;;;23.30;63.91;100786.39;1715592;82;21125;-62
2021/06/06 08:33:06;;;;;;;4.20;2.47;;;;;;;23.32;63.79;100782.72;1734634;81;21070;-62
2021/06/06 08:35:32;;;;;;;3.12;2.60;;;;;;;23.32;63.59;100781.33;1742191;81;21126;-61
2021/06/06 08:37:59;;;;;;;3.87;2.85;;;;;;;23.31;63.48;100788.03;1725206;81;21051;-62
2021/06/06 08:40:30;;;;;;;5.28;3.02;;;;;;;23.32;63.38;100787.45;1724798;81;22036;-61
2021/06/06 08:42:56;;;;;;;11.93;5.70;;;;;;;23.30;63.27;100790.56;1738936;80;21635;-61
2021/06/06 08:45:34;;;;;;;6.15;3.27;;;;;;;23.28;63.18;100791.48;1739553;81;21135;-61
2021/06/06 08:48:03;;;;;;;5.70;3.95;;;;;;;23.27;63.09;100782.91;1718896;82;21076;-62
2021/06/06 08:50:40;;;;;;;4.08;3.00;;;;;;;23.27;62.98;100795.41;1736561;80;21530;-61
2021/06/06 08:53:41;;;;;;;3.35;2.80;;;;;;;23.23;62.90;100799.43;1745572;80;21137;-62
2021/06/06 08:56:20;;;;;;;3.60;3.20;;;;;;;23.21;62.83;100806.48;1747997;80;21553;-61
2021/06/06 08:58:58;;;;;;;4.45;3.55;;;;;;;23.17;62.78;100803.53;1740458;80;21083;-61
2021/06/06 09:01:33;;;;;;;5.65;3.00;;;;;;;23.13;62.72;100809.52;1706284;82;21110;-61
2021/06/06 09:04:00;;;;;;;3.65;2.77;;;;;;;23.10;62.68;100812.97;1739450;80;21075;-61
2021/06/06 09:07:00;;;;;;;3.92;2.62;;;;;;;23.09;62.64;100811.91;1724434;81;21493;-61
2021/06/06 09:09:34;;;;;;;5.80;3.00;;;;;;;23.10;62.68;100816.31;1731392;81;21079;-62
2021/06/06 09:12:08;;;;;;;5.00;2.80;;;;;;;23.10;62.70;100812.16;1710954;81;21145;-62
2021/06/06 09:14:34;;;;;;;4.35;2.85;;;;;;;23.12;62.73;100808.48;1745835;81;21075;-62
2021/06/06 09:17:07;;;;;;;3.22;2.60;;;;;;;23.12;62.70;100803.75;1720566;82;21480;-60
2021/06/06 09:19:49;;;;;;;5.37;3.33;;;;;;;23.16;62.66;100797.77;1739374;81;21553;-63
2021/06/06 09:22:29;;;;;;;4.78;2.83;;;;;;;23.20;62.55;100793.74;1739252;81;21482;-62
2021/06/06 09:24:55;;;;;;;4.22;3.15;;;;;;;23.20;62.43;100784.84;1718699;82;21056;-62
2021/06/06 09:27:25;;;;;;;4.08;2.98;;;;;;;23.22;62.36;100778.94;1691237;82;21517;-62
2021/06/06 09:30:05;;;;;;;3.67;3.15;;;;;;;23.23;62.28;100782.77;1709424;82;21027;-62
2021/06/06 09:32:32;;;;;;;3.85;2.70;;;;;;;23.22;62.18;100783.10;1725691;81;27116;-62
2021/06/06 09:35:27;;;;;;;3.90;2.95;;;;;;;23.20;62.11;100794.56;1706582;82;21349;-62
2021/06/06 09:38:14;;;;;;;3.55;2.90;;;;;;;23.17;62.01;100794.39;1699445;82;21085;-62
2021/06/06 09:40:43;;;;;;;3.20;2.80;;;;;;;23.13;61.90;100801.76;1702947;82;21203;-63
2021/06/06 09:43:29;;;;;;;4.03;3.30;;;;;;;23.09;61.80;100809.13;1699965;82;21110;-62
2021/06/06 09:46:08;;;;;;;4.97;2.70;;;;;;;23.05;61.74;100807.60;1701147;82;21415;-62
2021/06/06 09:48:39;;;;;;;5.83;3.10;;;;;;;23.02;61.70;100819.95;1686995;83;21015;-62
2021/06/06 09:51:25;;;;;;;3.95;3.10;;;;;;;22.98;61.67;100823.97;1714170;82;21616;-62
2021/06/06 09:53:57;;;;;;;4.87;2.75;;;;;;;22.95;61.64;100821.05;1706481;82;21055;-63
2021/06/06 09:56:28;;;;;;;4.10;2.67;;;;;;;22.94;61.63;100816.64;1710615;82;21073;-63
2021/06/06 09:58:57;;;;;;;4.28;3.12;;;;;;;22.92;61.59;100817.53;1690265;84;21982;-63
2021/06/06 10:01:32;;;;;;;5.47;2.67;;;;;;;22.91;61.53;100808.99;1699887;82;21096;-63
2021/06/06 10:04:12;;;;;;;4.15;3.10;;;;;;;22.92;61.48;100800.89;1704332;82;21580;-63
2021/06/06 10:06:40;;;;;;;4.80;3.00;;;;;;;22.95;61.48;100799.67;1705853;82;21169;-63
2021/06/06 10:09:17;;;;;;;5.05;3.00;;;;;;;22.98;61.55;100807.32;1714633;82;21051;-62
2021/06/06 10:12:09;;;;;;;22.70;6.97;;;;;;;23.00;61.61;100803.63;1686686;83;21139;-63
2021/06/06 10:14:45;;;;;;;16.65;6.60;;;;;;;23.03;61.66;100804.36;1678944;83;21141;-63
2021/06/06 10:17:15;;;;;;;14.47;5.92;;;;;;;23.05;61.72;100809.56;1682507;83;21158;-63
2021/06/06 10:19:49;;;;;;;13.47;5.40;;;;;;;23.07;61.75;100801.73;1703743;82;21085;-63
2021/06/06 10:22:26;;;;;;;15.63;5.85;;;;;;;23.08;61.75;100804.75;1702838;82;21621;-62
2021/06/06 10:24:58;;;;;;;13.65;6.85;;;;;;;23.09;61.69;100803.58;1705373;82;21689;-63
2021/06/06 10:27:44;;;;;;;11.88;6.22;;;;;;;23.10;61.66;100803.25;1709191;82;21128;-62
2021/06/06 10:30:28;;;;;;;13.93;7.03;;;;;;;23.10;61.67;100801.87;1674424;84;21149;-62
2021/06/06 10:33:00;;;;;;;9.88;5.87;;;;;;;23.11;61.65;100799.91;1719696;80;21555;-63
2021/06/06 10:35:31;;;;;;;13.43;5.67;;;;;;;23.10;61.65;100800.48;1734608;80;21097;-62
2021/06/06 10:37:59;;;;;;;11.60;5.40;;;;;;;23.10;61.61;100793.55;1737110;80;21080;-61
2021/06/06 10:40:45;;;;;;;6.45;4.33;;;;;;;23.10;61.53;100792.73;1735427;80;21114;-61
2021/06/06 10:43:28;;;;;;;9.85;5.58;;;;;;;23.08;61.46;100786.14;1722449;81;21356;-62
2021/06/06 10:46:27;;;;;;;6.12;4.53;;;;;;;23.08;61.33;100784.75;1718548;82;21581;-61
2021/06/06 10:49:35;;;;;;;6.47;4.85;;;;;;;23.07;61.33;100778.95;1705850;82;20999;-62
2021/06/06 10:52:09;;;;;;;6.30;3.87;;;;;;;23.07;61.28;100778.14;1738926;80;21507;-61
2021/06/06 10:54:45;;;;;;;5.30;3.95;;;;;;;23.10;61.29;100775.50;1739239;81;21736;-62
2021/06/06 10:57:30;;;;;;;5.20;3.40;;;;;;;23.16;61.28;100770.58;1712260;82;21078;-62
2021/06/06 11:00:10;;;;;;;8.70;3.83;;;;;;;23.19;61.37;100772.11;1740458;81;21834;-62
2021/06/06 11:02:54;;;;;;;6.22;3.40;;;;;;;23.24;61.43;100764.16;1738860;80;21098;-62
2021/06/06 11:05:37;;;;;;;5.30;3.52;;;;;;;23.29;61.43;100761.20;1748271;81;21118;-62
2021/06/06 11:08:31;;;;;;;6.50;3.33;;;;;;;23.34;61.32;100753.25;1748205;80;21044;-62
2021/06/06 11:11:24;;;;;;;7.85;4.20;;;;;;;23.37;61.21;100748.40;1737058;80;21125;-63
2021/06/06 11:13:57;;;;;;;4.00;3.12;;;;;;;23.38;61.06;100750.03;1714682;82;21112;-63
2021/06/06 11:16:36;;;;;;;4.50;3.15;;;;;;;23.39;60.87;100746.90;1730070;81;20988;-63
2021/06/06 11:19:16;;;;;;;7.28;3.17;;;;;;;23.40;60.66;100738.00;1712559;81;20991;-62
2021/06/06 11:21:46;;;;;;;;;;;;;;;23.40;60.53;100737.42;1694289;82;21099;-63
2021/06/06 11:24:33;;;;;;;3.40;2.60;;;;;;;23.39;60.46;100733.59;1747732;80;20429;-62
2021/06/06 11:27:17;;;;;;;4.53;2.72;;;;;;;23.38;60.42;100727.22;1743206;80;21067;-62
2021/06/06 11:30:10;;;;;;;3.50;2.70;;;;;;;23.39;60.35;100722.48;1741513;80;21110;-62
2021/06/06 11:33:11;;;;;;;5.37;2.92;;;;;;;23.40;60.29;100718.56;1738392;79;21765;-62
2021/06/06 11:35:47;;;;;;;4.05;2.72;;;;;;;23.41;60.21;100716.03;1696489;82;21076;-62
2021/06/06 11:38:42;;;;;;;5.17;2.58;;;;;;;23.40;60.18;100719.38;1702648;82;21052;-62
2021/06/06 11:41:16;;;;;;;3.30;2.45;;;;;;;23.41;60.12;100722.97;1713123;82;21720;-63
2021/06/06 11:44:30;;;;;;;3.58;2.87;;;;;;;23.42;60.09;100734.32;1741200;81;21059;-62
2021/06/06 11:47:26;;;;;;;3.70;2.27;;;;;;;23.44;60.08;100725.09;1726911;81;21810;-61